sensor_id;sensor_type;location;lat;lon;timestamp;pressure;altitude;pressure_sealevel;temperature;humidity
14242;BME280;7205;50.864;12.766;2023-04-04T00:01:12;98714.88;;;3.36;55.42
14242;BME280;7205;50.864;12.766;2023-04-04T00:03:40;98714.88;;;3.36;55.60
14242;BME280;7205;50.864;12.766;2023-04-04T00:06:07;98717.47;;;3.36;56.33
14242;BME280;7205;50.864;12.766;2023-04-04T00:08:35;98714.97;;;3.35;56.11
14242;BME280;7205;50.864;12.766;2023-04-04T00:11:03;98711.63;;;3.33;55.97
14242;BME280;7205;50.864;12.766;2023-04-04T00:13:30;98708.28;;;3.31;56.60
14242;BME280;7205;50.864;12.766;2023-04-04T00:15:57;98701.19;;;3.33;56.65
14242;BME280;7205;50.864;12.766;2023-04-04T00:18:24;98697.84;;;3.31;56.32
14242;BME280;7205;50.864;12.766;2023-04-04T00:20:51;98706.53;;;3.31;57.22
14242;BME280;7205;50.864;12.766;2023-04-04T00:23:17;98693.66;;;3.28;56.62
14242;BME280;7205;50.864;12.766;2023-04-04T00:25:49;98692.84;;;3.28;57.16
14242;BME280;7205;50.864;12.766;2023-04-04T00:28:17;98697.97;;;3.29;57.38
14242;BME280;7205;50.864;12.766;2023-04-04T00:30:44;98689.28;;;3.29;57.81
14242;BME280;7205;50.864;12.766;2023-04-04T00:33:11;98690.97;;;3.30;57.82
14242;BME280;7205;50.864;12.766;2023-04-04T00:35:38;98693.25;;;3.34;58.01
14242;BME280;7205;50.864;12.766;2023-04-04T00:38:05;98694.09;;;3.35;57.89
14242;BME280;7205;50.864;12.766;2023-04-04T00:40:32;98691.69;;;3.32;57.94
14242;BME280;7205;50.864;12.766;2023-04-04T00:43:01;98691.78;;;3.30;57.76
14242;BME280;7205;50.864;12.766;2023-04-04T00:45:28;98691.88;;;3.29;57.68
14242;BME280;7205;50.864;12.766;2023-04-04T00:47:56;98689.38;;;3.27;58.59
14242;BME280;7205;50.864;12.766;2023-04-04T00:50:24;98681.66;;;3.26;58.40
14242;BME280;7205;50.864;12.766;2023-04-04T00:52:50;98682.50;;;3.26;58.44
14242;BME280;7205;50.864;12.766;2023-04-04T00:55:17;98679.06;;;3.26;58.34
14242;BME280;7205;50.864;12.766;2023-04-04T00:57:44;98677.28;;;3.26;58.65
14242;BME280;7205;50.864;12.766;2023-04-04T01:00:13;98675.72;;;3.24;58.54
14242;BME280;7205;50.864;12.766;2023-04-04T01:02:41;98675.72;;;3.24;59.08
14242;BME280;7205;50.864;12.766;2023-04-04T01:05:08;98678.31;;;3.24;59.25
14242;BME280;7205;50.864;12.766;2023-04-04T01:07:35;98681.88;;;3.23;58.78
14242;BME280;7205;50.864;12.766;2023-04-04T01:10:03;98680.28;;;3.20;59.05
14242;BME280;7205;50.864;12.766;2023-04-04T01:12:30;98679.56;;;3.18;59.03
14242;BME280;7205;50.864;12.766;2023-04-04T01:14:57;98674.44;;;3.17;59.56
14242;BME280;7205;50.864;12.766;2023-04-04T01:17:26;98678.00;;;3.16;59.58
14242;BME280;7205;50.864;12.766;2023-04-04T01:19:59;98689.41;;;3.15;59.94
14242;BME280;7205;50.864;12.766;2023-04-04T01:22:36;98676.63;;;3.10;59.37
14242;BME280;7205;50.864;12.766;2023-04-04T01:25:05;98680.41;;;3.06;59.97
14242;BME280;7205;50.864;12.766;2023-04-04T01:27:34;98665.91;;;3.02;59.93
14242;BME280;7205;50.864;12.766;2023-04-04T01:30:09;98662.53;;;3.00;59.89
14242;BME280;7205;50.864;12.766;2023-04-04T01:32:41;98657.44;;;2.99;59.92
14242;BME280;7205;50.864;12.766;2023-04-04T01:35:17;98661.09;;;2.96;59.98
14242;BME280;7205;50.864;12.766;2023-04-04T01:37:52;98658.50;;;2.96;60.45
14242;BME280;7205;50.864;12.766;2023-04-04T01:40:24;98655.88;;;2.96;61.12
14242;BME280;7205;50.864;12.766;2023-04-04T01:42:55;98663.59;;;2.98;60.84
14242;BME280;7205;50.864;12.766;2023-04-04T01:45:24;98649.94;;;2.94;61.11
14242;BME280;7205;50.864;12.766;2023-04-04T01:47:51;98656.06;;;2.93;61.22
14242;BME280;7205;50.864;12.766;2023-04-04T01:50:22;98654.50;;;2.91;60.99
14242;BME280;7205;50.864;12.766;2023-04-04T01:52:49;98651.28;;;2.87;61.14
14242;BME280;7205;50.864;12.766;2023-04-04T01:55:16;98651.59;;;2.83;60.98
14242;BME280;7205;50.864;12.766;2023-04-04T01:57:42;98650.97;;;2.79;61.43
14242;BME280;7205;50.864;12.766;2023-04-04T02:00:12;98654.47;;;2.78;62.16
14242;BME280;7205;50.864;12.766;2023-04-04T02:02:43;98650.31;;;2.76;61.66
14242;BME280;7205;50.864;12.766;2023-04-04T02:05:10;98656.56;;;2.73;61.76
14242;BME280;7205;50.864;12.766;2023-04-04T02:07:37;98654.16;;;2.70;62.05
14242;BME280;7205;50.864;12.766;2023-04-04T02:10:12;98650.81;;;2.68;62.66
14242;BME280;7205;50.864;12.766;2023-04-04T02:12:39;98651.03;;;2.65;62.32
14242;BME280;7205;50.864;12.766;2023-04-04T02:15:07;98646.84;;;2.63;62.74
14242;BME280;7205;50.864;12.766;2023-04-04T02:17:35;98649.47;;;2.63;63.04
14242;BME280;7205;50.864;12.766;2023-04-04T02:20:05;98647.78;;;2.62;62.97
14242;BME280;7205;50.864;12.766;2023-04-04T02:22:32;98645.38;;;2.58;63.28
14242;BME280;7205;50.864;12.766;2023-04-04T02:24:59;98641.13;;;2.58;63.75
14242;BME280;7205;50.864;12.766;2023-04-04T02:27:27;98648.31;;;2.54;63.75
14242;BME280;7205;50.864;12.766;2023-04-04T02:29:54;98645.69;;;2.54;63.94
14242;BME280;7205;50.864;12.766;2023-04-04T02:32:23;98640.28;;;2.57;63.92
14242;BME280;7205;50.864;12.766;2023-04-04T02:34:52;98642.88;;;2.57;63.61
14242;BME280;7205;50.864;12.766;2023-04-04T02:37:20;98641.22;;;2.56;64.18
14242;BME280;7205;50.864;12.766;2023-04-04T02:39:50;98640.28;;;2.57;64.41
14242;BME280;7205;50.864;12.766;2023-04-04T02:42:17;98638.41;;;2.59;64.75
14242;BME280;7205;50.864;12.766;2023-04-04T02:44:44;98632.97;;;2.62;64.50
14242;BME280;7205;50.864;12.766;2023-04-04T02:47:14;98630.28;;;2.64;64.66
14242;BME280;7205;50.864;12.766;2023-04-04T02:49:41;98622.34;;;2.65;64.19
14242;BME280;7205;50.864;12.766;2023-04-04T02:52:09;98627.56;;;2.65;64.99
14242;BME280;7205;50.864;12.766;2023-04-04T02:54:40;98621.72;;;2.62;64.58
14242;BME280;7205;50.864;12.766;2023-04-04T02:57:09;98626.13;;;2.61;64.74
14242;BME280;7205;50.864;12.766;2023-04-04T02:59:37;98623.59;;;2.60;64.60
14242;BME280;7205;50.864;12.766;2023-04-04T03:02:04;98626.94;;;2.62;65.53
14242;BME280;7205;50.864;12.766;2023-04-04T03:04:31;98623.19;;;2.66;65.56
14242;BME280;7205;50.864;12.766;2023-04-04T03:06:58;98624.84;;;2.67;65.06
14242;BME280;7205;50.864;12.766;2023-04-04T03:09:26;98620.38;;;2.69;65.77
14242;BME280;7205;50.864;12.766;2023-04-04T03:11:53;98628.09;;;2.70;65.24
14242;BME280;7205;50.864;12.766;2023-04-04T03:14:20;98623.94;;;2.68;65.30
14242;BME280;7205;50.864;12.766;2023-04-04T03:16:47;98622.25;;;2.67;65.85
14242;BME280;7205;50.864;12.766;2023-04-04T03:19:14;98612.03;;;2.64;65.96
14242;BME280;7205;50.864;12.766;2023-04-04T03:21:41;98611.09;;;2.65;66.09
14242;BME280;7205;50.864;12.766;2023-04-04T03:24:08;98608.56;;;2.63;65.46
14242;BME280;7205;50.864;12.766;2023-04-04T03:26:36;98606.06;;;2.62;65.64
14242;BME280;7205;50.864;12.766;2023-04-04T03:29:03;98607.03;;;2.61;65.88
14242;BME280;7205;50.864;12.766;2023-04-04T03:31:31;98601.81;;;2.61;65.92
14242;BME280;7205;50.864;12.766;2023-04-04T03:33:58;98608.56;;;2.63;66.71
14242;BME280;7205;50.864;12.766;2023-04-04T03:36:27;98605.78;;;2.66;66.78
14242;BME280;7205;50.864;12.766;2023-04-04T03:38:53;98612.22;;;2.73;67.03
14242;BME280;7205;50.864;12.766;2023-04-04T03:41:20;98608.50;;;2.77;67.05
14242;BME280;7205;50.864;12.766;2023-04-04T03:43:49;98613.59;;;2.79;66.85
14242;BME280;7205;50.864;12.766;2023-04-04T03:46:16;98606.72;;;2.78;66.25
14242;BME280;7205;50.864;12.766;2023-04-04T03:48:45;98595.78;;;2.73;66.09
14242;BME280;7205;50.864;12.766;2023-04-04T03:51:12;98604.63;;;2.70;66.95
14242;BME280;7205;50.864;12.766;2023-04-04T03:53:39;98594.31;;;2.69;67.03
14242;BME280;7205;50.864;12.766;2023-04-04T03:56:06;98589.81;;;2.71;66.99
14242;BME280;7205;50.864;12.766;2023-04-04T03:58:34;98587.84;;;2.74;66.85
14242;BME280;7205;50.864;12.766;2023-04-04T04:01:02;98593.81;;;2.76;67.32
14242;BME280;7205;50.864;12.766;2023-04-04T04:03:30;98590.25;;;2.77;67.57
14242;BME280;7205;50.864;12.766;2023-04-04T04:05:57;98591.09;;;2.78;67.44
14242;BME280;7205;50.864;12.766;2023-04-04T04:08:25;98594.63;;;2.77;66.95
14242;BME280;7205;50.864;12.766;2023-04-04T04:10:52;98586.91;;;2.75;67.04
14242;BME280;7205;50.864;12.766;2023-04-04T04:13:19;98593.97;;;2.73;66.63
14242;BME280;7205;50.864;12.766;2023-04-04T04:15:46;98590.78;;;2.70;67.28
14242;BME280;7205;50.864;12.766;2023-04-04T04:18:20;98588.47;;;2.65;67.26
14242;BME280;7205;50.864;12.766;2023-04-04T04:20:48;98583.44;;;2.62;67.32
14242;BME280;7205;50.864;12.766;2023-04-04T04:23:15;98588.88;;;2.59;66.84
14242;BME280;7205;50.864;12.766;2023-04-04T04:25:46;98593.13;;;2.60;67.39
14242;BME280;7205;50.864;12.766;2023-04-04T04:28:16;98595.84;;;2.58;67.87
14242;BME280;7205;50.864;12.766;2023-04-04T04:30:43;98583.78;;;2.58;67.47
14242;BME280;7205;50.864;12.766;2023-04-04T04:33:11;98594.31;;;2.56;67.31
14242;BME280;7205;50.864;12.766;2023-04-04T04:35:51;98589.16;;;2.54;67.65
14242;BME280;7205;50.864;12.766;2023-04-04T04:38:20;98597.72;;;2.56;68.02
14242;BME280;7205;50.864;12.766;2023-04-04T04:40:47;98597.72;;;2.56;68.42
14242;BME280;7205;50.864;12.766;2023-04-04T04:43:21;98591.50;;;2.59;68.50
14242;BME280;7205;50.864;12.766;2023-04-04T04:45:49;98594.09;;;2.59;68.48
14242;BME280;7205;50.864;12.766;2023-04-04T04:48:16;98586.28;;;2.59;68.67
14242;BME280;7205;50.864;12.766;2023-04-04T04:50:47;98590.53;;;2.60;68.71
14242;BME280;7205;50.864;12.766;2023-04-04T04:53:24;98595.66;;;2.62;68.71
14242;BME280;7205;50.864;12.766;2023-04-04T04:55:53;98594.72;;;2.63;68.88
14242;BME280;7205;50.864;12.766;2023-04-04T04:58:20;98599.84;;;2.64;68.58
14242;BME280;7205;50.864;12.766;2023-04-04T05:00:54;98594.72;;;2.63;68.80
14242;BME280;7205;50.864;12.766;2023-04-04T05:03:21;98602.75;;;2.60;68.07
14242;BME280;7205;50.864;12.766;2023-04-04T05:05:49;98602.66;;;2.61;68.66
14242;BME280;7205;50.864;12.766;2023-04-04T05:08:16;98603.28;;;2.65;69.27
14242;BME280;7205;50.864;12.766;2023-04-04T05:10:57;98613.50;;;2.68;69.45
14242;BME280;7205;50.864;12.766;2023-04-04T05:13:27;98614.13;;;2.71;69.10
14242;BME280;7205;50.864;12.766;2023-04-04T05:15:54;98618.28;;;2.74;69.60
14242;BME280;7205;50.864;12.766;2023-04-04T05:18:21;98619.25;;;2.73;69.15
14242;BME280;7205;50.864;12.766;2023-04-04T05:20:52;98622.59;;;2.75;69.22
14242;BME280;7205;50.864;12.766;2023-04-04T05:23:20;98619.97;;;2.75;69.66
14242;BME280;7205;50.864;12.766;2023-04-04T05:25:47;98619.78;;;2.78;69.55
14242;BME280;7205;50.864;12.766;2023-04-04T05:28:16;98628.41;;;2.78;69.19
14242;BME280;7205;50.864;12.766;2023-04-04T05:30:43;98629.34;;;2.77;69.15
14242;BME280;7205;50.864;12.766;2023-04-04T05:33:20;98627.69;;;2.76;68.87
14242;BME280;7205;50.864;12.766;2023-04-04T05:35:58;98622.47;;;2.76;68.97
14242;BME280;7205;50.864;12.766;2023-04-04T05:38:26;98635.41;;;2.78;69.48
14242;BME280;7205;50.864;12.766;2023-04-04T05:40:53;98634.25;;;2.82;69.40
14242;BME280;7205;50.864;12.766;2023-04-04T05:43:23;98631.53;;;2.83;69.39
14242;BME280;7205;50.864;12.766;2023-04-04T05:46:00;98623.53;;;2.86;69.51
14242;BME280;7205;50.864;12.766;2023-04-04T05:48:34;98634.38;;;2.93;69.79
14242;BME280;7205;50.864;12.766;2023-04-04T05:51:01;98630.72;;;2.95;69.69
14242;BME280;7205;50.864;12.766;2023-04-04T05:53:40;98635.72;;;2.98;69.70
14242;BME280;7205;50.864;12.766;2023-04-04T05:56:14;98631.03;;;3.03;69.19
14242;BME280;7205;50.864;12.766;2023-04-04T05:58:44;98640.13;;;3.10;69.31
14242;BME280;7205;50.864;12.766;2023-04-04T06:01:14;98631.25;;;3.13;69.29
14242;BME280;7205;50.864;12.766;2023-04-04T06:03:43;98630.84;;;3.19;69.30
14242;BME280;7205;50.864;12.766;2023-04-04T06:06:22;98638.34;;;3.23;68.99
14242;BME280;7205;50.864;12.766;2023-04-04T06:08:52;98634.47;;;3.29;69.55
14242;BME280;7205;50.864;12.766;2023-04-04T06:11:22;98636.47;;;3.38;69.27
14242;BME280;7205;50.864;12.766;2023-04-04T06:14:00;98641.03;;;3.47;69.57
14242;BME280;7205;50.864;12.766;2023-04-04T06:16:27;98642.16;;;3.55;68.91
14242;BME280;7205;50.864;12.766;2023-04-04T06:18:54;98631.50;;;3.58;68.37
14242;BME280;7205;50.864;12.766;2023-04-04T06:21:22;98638.19;;;3.62;68.18
14242;BME280;7205;50.864;12.766;2023-04-04T06:23:53;98632.88;;;3.64;68.11
14242;BME280;7205;50.864;12.766;2023-04-04T06:26:20;98641.09;;;3.70;67.92
14242;BME280;7205;50.864;12.766;2023-04-04T06:28:48;98638.06;;;3.76;67.73
14242;BME280;7205;50.864;12.766;2023-04-04T06:31:32;98639.63;;;3.79;67.13
14242;BME280;7205;50.864;12.766;2023-04-04T06:34:13;98638.47;;;3.83;67.27
14242;BME280;7205;50.864;12.766;2023-04-04T06:36:58;98639.03;;;3.99;67.80
14242;BME280;7205;50.864;12.766;2023-04-04T06:39:30;98638.88;;;4.13;67.48
14242;BME280;7205;50.864;12.766;2023-04-04T06:42:01;98640.44;;;4.16;66.33
14242;BME280;7205;50.864;12.766;2023-04-04T06:44:31;98636.16;;;4.15;65.30
14242;BME280;7205;50.864;12.766;2023-04-04T06:46:59;98632.72;;;4.14;65.57
14242;BME280;7205;50.864;12.766;2023-04-04T06:49:26;98635.31;;;4.14;65.44
14242;BME280;7205;50.864;12.766;2023-04-04T06:51:53;98639.28;;;4.20;65.79
14242;BME280;7205;50.864;12.766;2023-04-04T06:54:20;98628.97;;;4.29;65.38
14242;BME280;7205;50.864;12.766;2023-04-04T06:56:47;98625.53;;;4.29;64.55
14242;BME280;7205;50.864;12.766;2023-04-04T06:59:14;98642.28;;;4.26;63.70
14242;BME280;7205;50.864;12.766;2023-04-04T07:01:41;98638.31;;;4.21;63.72
14242;BME280;7205;50.864;12.766;2023-04-04T07:04:11;98625.13;;;4.22;63.39
14242;BME280;7205;50.864;12.766;2023-04-04T07:06:38;98633.38;;;4.29;64.43
14242;BME280;7205;50.864;12.766;2023-04-04T07:09:05;98631.66;;;4.40;64.07
14242;BME280;7205;50.864;12.766;2023-04-04T07:11:32;98623.00;;;4.51;64.29
14242;BME280;7205;50.864;12.766;2023-04-04T07:13:58;98633.72;;;4.59;63.30
14242;BME280;7205;50.864;12.766;2023-04-04T07:16:25;98624.38;;;4.67;63.26
14242;BME280;7205;50.864;12.766;2023-04-04T07:18:52;98626.31;;;4.76;63.45
14242;BME280;7205;50.864;12.766;2023-04-04T07:21:20;98617.31;;;4.91;63.41
14242;BME280;7205;50.864;12.766;2023-04-04T07:23:47;98628.03;;;4.99;63.41
14242;BME280;7205;50.864;12.766;2023-04-04T07:26:15;98621.72;;;5.02;62.15
14242;BME280;7205;50.864;12.766;2023-04-04T07:28:42;98630.88;;;5.07;62.37
14242;BME280;7205;50.864;12.766;2023-04-04T07:31:08;98624.34;;;5.13;62.89
14242;BME280;7205;50.864;12.766;2023-04-04T07:33:35;98627.81;;;5.25;62.61
14242;BME280;7205;50.864;12.766;2023-04-04T07:36:02;98631.88;;;5.29;61.77
14242;BME280;7205;50.864;12.766;2023-04-04T07:38:31;98628.88;;;5.11;60.04
14242;BME280;7205;50.864;12.766;2023-04-04T07:40:58;98631.44;;;4.89;59.36
14242;BME280;7205;50.864;12.766;2023-04-04T07:43:25;98629.72;;;4.66;59.47
14242;BME280;7205;50.864;12.766;2023-04-04T07:45:53;98634.66;;;4.47;59.63
14242;BME280;7205;50.864;12.766;2023-04-04T07:48:23;98630.22;;;4.36;59.60
14242;BME280;7205;50.864;12.766;2023-04-04T07:50:51;98621.88;;;4.31;60.35
14242;BME280;7205;50.864;12.766;2023-04-04T07:53:18;98625.09;;;4.35;61.10
14242;BME280;7205;50.864;12.766;2023-04-04T07:55:46;98620.84;;;4.45;60.91
14242;BME280;7205;50.864;12.766;2023-04-04T07:58:13;98621.16;;;4.64;61.44
14242;BME280;7205;50.864;12.766;2023-04-04T08:00:39;98625.63;;;4.85;62.17
14242;BME280;7205;50.864;12.766;2023-04-04T08:03:06;98624.72;;;5.08;61.98
14242;BME280;7205;50.864;12.766;2023-04-04T08:05:33;98632.25;;;5.24;60.26
14242;BME280;7205;50.864;12.766;2023-04-04T08:08:00;98631.63;;;5.21;59.27
14242;BME280;7205;50.864;12.766;2023-04-04T08:10:27;98625.19;;;5.13;58.16
14242;BME280;7205;50.864;12.766;2023-04-04T08:12:55;98622.78;;;4.99;58.02
14242;BME280;7205;50.864;12.766;2023-04-04T08:15:22;98615.84;;;4.87;57.35
14242;BME280;7205;50.864;12.766;2023-04-04T08:17:50;98610.13;;;4.82;58.37
14242;BME280;7205;50.864;12.766;2023-04-04T08:20:17;98615.16;;;4.85;58.23
14242;BME280;7205;50.864;12.766;2023-04-04T08:22:44;98607.88;;;4.89;58.26
14242;BME280;7205;50.864;12.766;2023-04-04T08:25:11;98622.91;;;4.98;58.91
14242;BME280;7205;50.864;12.766;2023-04-04T08:27:39;98616.50;;;5.13;58.89
14242;BME280;7205;50.864;12.766;2023-04-04T08:30:11;98623.06;;;5.30;58.77
14242;BME280;7205;50.864;12.766;2023-04-04T08:32:38;98618.06;;;5.38;56.94
14242;BME280;7205;50.864;12.766;2023-04-04T08:35:05;98613.22;;;5.44;55.75
14242;BME280;7205;50.864;12.766;2023-04-04T08:37:33;98615.22;;;5.52;55.27
14242;BME280;7205;50.864;12.766;2023-04-04T08:40:00;98622.47;;;5.70;54.84
14242;BME280;7205;50.864;12.766;2023-04-04T08:42:27;98615.41;;;5.93;54.81
14242;BME280;7205;50.864;12.766;2023-04-04T08:44:58;98618.59;;;6.18;54.81
14242;BME280;7205;50.864;12.766;2023-04-04T08:47:30;98613.34;;;6.50;55.21
14242;BME280;7205;50.864;12.766;2023-04-04T08:50:02;98614.41;;;6.79;53.92
14242;BME280;7205;50.864;12.766;2023-04-04T08:52:32;98612.16;;;6.95;52.16
14242;BME280;7205;50.864;12.766;2023-04-04T08:54:59;98609.47;;;7.06;50.96
14242;BME280;7205;50.864;12.766;2023-04-04T08:57:25;98605.47;;;7.12;50.35
14242;BME280;7205;50.864;12.766;2023-04-04T08:59:53;98601.25;;;7.20;50.19
14242;BME280;7205;50.864;12.766;2023-04-04T09:02:25;98606.66;;;7.28;50.00
14242;BME280;7205;50.864;12.766;2023-04-04T09:04:57;98609.88;;;7.32;48.07
14242;BME280;7205;50.864;12.766;2023-04-04T09:07:26;98602.09;;;7.21;47.15
14242;BME280;7205;50.864;12.766;2023-04-04T09:09:53;98607.03;;;7.14;46.88
14242;BME280;7205;50.864;12.766;2023-04-04T09:12:21;98601.97;;;7.02;46.21
14242;BME280;7205;50.864;12.766;2023-04-04T09:14:50;98611.09;;;6.98;47.02
14242;BME280;7205;50.864;12.766;2023-04-04T09:17:17;98612.72;;;6.99;46.46
14242;BME280;7205;50.864;12.766;2023-04-04T09:19:44;98614.78;;;6.95;46.00
14242;BME280;7205;50.864;12.766;2023-04-04T09:22:14;98622.59;;;6.86;45.68
14242;BME280;7205;50.864;12.766;2023-04-04T09:24:42;98614.44;;;6.68;45.22
14242;BME280;7205;50.864;12.766;2023-04-04T09:27:11;98609.00;;;6.60;45.55
14242;BME280;7205;50.864;12.766;2023-04-04T09:29:39;98597.44;;;6.63;45.96
14242;BME280;7205;50.864;12.766;2023-04-04T09:32:07;98600.19;;;6.82;47.36
14242;BME280;7205;50.864;12.766;2023-04-04T09:34:34;98599.78;;;7.07;47.49
14242;BME280;7205;50.864;12.766;2023-04-04T09:37:03;98604.28;;;7.16;45.38
14242;BME280;7205;50.864;12.766;2023-04-04T09:39:32;98598.31;;;7.14;45.16
14242;BME280;7205;50.864;12.766;2023-04-04T09:42:00;98600.66;;;7.17;45.65
14242;BME280;7205;50.864;12.766;2023-04-04T09:44:27;98604.44;;;7.24;45.15
14242;BME280;7205;50.864;12.766;2023-04-04T09:47:24;98602.00;;;7.32;45.17
14242;BME280;7205;50.864;12.766;2023-04-04T09:49:52;98594.59;;;7.46;45.29
14242;BME280;7205;50.864;12.766;2023-04-04T09:52:19;98616.19;;;7.50;43.99
14242;BME280;7205;50.864;12.766;2023-04-04T09:54:58;98607.19;;;7.43;42.65
14242;BME280;7205;50.864;12.766;2023-04-04T09:57:27;98603.81;;;7.31;43.42
14242;BME280;7205;50.864;12.766;2023-04-04T09:59:56;98606.81;;;7.27;43.65
14242;BME280;7205;50.864;12.766;2023-04-04T10:02:24;98599.47;;;7.21;43.97
14242;BME280;7205;50.864;12.766;2023-04-04T10:04:52;98614.50;;;7.19;43.85
14242;BME280;7205;50.864;12.766;2023-04-04T10:07:18;98615.94;;;7.23;43.42
14242;BME280;7205;50.864;12.766;2023-04-04T10:09:47;98612.75;;;7.29;43.61
14242;BME280;7205;50.864;12.766;2023-04-04T10:12:21;98613.91;;;7.36;43.27
14242;BME280;7205;50.864;12.766;2023-04-04T10:14:54;98616.00;;;7.42;42.88
14242;BME280;7205;50.864;12.766;2023-04-04T10:17:22;98613.38;;;7.42;42.05
14242;BME280;7205;50.864;12.766;2023-04-04T10:19:53;98615.00;;;7.33;42.10
14242;BME280;7205;50.864;12.766;2023-04-04T10:22:20;98612.19;;;7.25;41.65
14242;BME280;7205;50.864;12.766;2023-04-04T10:24:48;98607.47;;;7.19;41.84
14242;BME280;7205;50.864;12.766;2023-04-04T10:27:14;98606.19;;;7.14;41.52
14242;BME280;7205;50.864;12.766;2023-04-04T10:29:43;98613.50;;;7.10;41.33
14242;BME280;7205;50.864;12.766;2023-04-04T10:32:15;98612.91;;;7.07;40.25
14242;BME280;7205;50.864;12.766;2023-04-04T10:34:51;98603.66;;;7.03;40.48
14242;BME280;7205;50.864;12.766;2023-04-04T10:37:24;98599.09;;;7.05;40.50
14242;BME280;7205;50.864;12.766;2023-04-04T10:39:57;98594.16;;;7.11;40.81
14242;BME280;7205;50.864;12.766;2023-04-04T10:42:28;98593.38;;;7.20;40.99
14242;BME280;7205;50.864;12.766;2023-04-04T10:45:00;98608.03;;;7.23;40.66
14242;BME280;7205;50.864;12.766;2023-04-04T10:47:28;98607.59;;;7.18;40.64
14242;BME280;7205;50.864;12.766;2023-04-04T10:49:56;98604.66;;;7.11;40.49
14242;BME280;7205;50.864;12.766;2023-04-04T10:52:26;98605.16;;;7.05;40.28
14242;BME280;7205;50.864;12.766;2023-04-04T10:54:56;98608.94;;;6.92;40.30
14242;BME280;7205;50.864;12.766;2023-04-04T10:57:24;98601.28;;;6.79;40.16
14242;BME280;7205;50.864;12.766;2023-04-04T10:59:56;98601.09;;;6.71;40.48
14242;BME280;7205;50.864;12.766;2023-04-04T11:02:43;98597.94;;;6.77;40.99
14242;BME280;7205;50.864;12.766;2023-04-04T11:05:10;98588.22;;;6.89;40.91
14242;BME280;7205;50.864;12.766;2023-04-04T11:07:39;98594.09;;;7.02;41.07
14242;BME280;7205;50.864;12.766;2023-04-04T11:10:12;98592.13;;;7.15;40.66
14242;BME280;7205;50.864;12.766;2023-04-04T11:12:43;98584.69;;;7.20;40.58
14242;BME280;7205;50.864;12.766;2023-04-04T11:15:11;98587.03;;;7.23;39.41
14242;BME280;7205;50.864;12.766;2023-04-04T11:17:48;98586.97;;;7.13;38.97
14242;BME280;7205;50.864;12.766;2023-04-04T11:20:17;98588.84;;;7.02;38.86
14242;BME280;7205;50.864;12.766;2023-04-04T11:22:44;98586.03;;;6.94;39.03
14242;BME280;7205;50.864;12.766;2023-04-04T11:25:30;98580.06;;;6.92;39.68
14242;BME280;7205;50.864;12.766;2023-04-04T11:27:58;98574.63;;;7.04;40.61
14242;BME280;7205;50.864;12.766;2023-04-04T11:30:29;98577.59;;;7.20;40.30
14242;BME280;7205;50.864;12.766;2023-04-04T11:32:58;98580.66;;;7.25;39.50
14242;BME280;7205;50.864;12.766;2023-04-04T11:35:25;98574.81;;;7.12;38.41
14242;BME280;7205;50.864;12.766;2023-04-04T11:37:59;98580.34;;;6.89;38.65
14242;BME280;7205;50.864;12.766;2023-04-04T11:40:35;98574.63;;;6.63;38.97
14242;BME280;7205;50.864;12.766;2023-04-04T11:43:07;98574.38;;;6.46;38.96
14242;BME280;7205;50.864;12.766;2023-04-04T11:45:35;98572.75;;;6.33;39.23
14242;BME280;7205;50.864;12.766;2023-04-04T11:48:05;98563.41;;;6.20;38.93
14242;BME280;7205;50.864;12.766;2023-04-04T11:50:35;98567.59;;;6.11;39.36
14242;BME280;7205;50.864;12.766;2023-04-04T11:53:04;98565.81;;;6.12;39.71
14242;BME280;7205;50.864;12.766;2023-04-04T11:55:32;98554.16;;;6.05;38.87
14242;BME280;7205;50.864;12.766;2023-04-04T11:58:10;98555.84;;;6.06;38.48
14242;BME280;7205;50.864;12.766;2023-04-04T12:00:38;98548.63;;;6.19;39.35
14242;BME280;7205;50.864;12.766;2023-04-04T12:03:09;98560.69;;;6.42;39.27
14242;BME280;7205;50.864;12.766;2023-04-04T12:05:37;98547.59;;;6.63;38.85
14242;BME280;7205;50.864;12.766;2023-04-04T12:08:06;98545.78;;;6.84;38.96
14242;BME280;7205;50.864;12.766;2023-04-04T12:10:34;98540.22;;;7.07;38.85
14242;BME280;7205;50.864;12.766;2023-04-04T12:13:01;98537.00;;;7.24;38.53
14242;BME280;7205;50.864;12.766;2023-04-04T12:15:32;98545.03;;;7.32;38.39
14242;BME280;7205;50.864;12.766;2023-04-04T12:17:59;98551.41;;;7.30;38.32
14242;BME280;7205;50.864;12.766;2023-04-04T12:20:28;98545.16;;;7.21;38.49
14242;BME280;7205;50.864;12.766;2023-04-04T12:22:56;98541.25;;;7.16;38.53
14242;BME280;7205;50.864;12.766;2023-04-04T12:25:23;98535.44;;;7.22;39.54
14242;BME280;7205;50.864;12.766;2023-04-04T12:27:53;98532.19;;;7.39;40.02
14242;BME280;7205;50.864;12.766;2023-04-04T12:30:21;98534.59;;;7.51;39.32
14242;BME280;7205;50.864;12.766;2023-04-04T12:32:48;98534.34;;;7.54;39.06
14242;BME280;7205;50.864;12.766;2023-04-04T12:35:16;98534.19;;;7.46;38.91
14242;BME280;7205;50.864;12.766;2023-04-04T12:37:58;98535.06;;;7.26;38.98
14242;BME280;7205;50.864;12.766;2023-04-04T12:40:31;98539.78;;;7.02;38.79
14242;BME280;7205;50.864;12.766;2023-04-04T12:43:00;98534.38;;;6.74;38.91
14242;BME280;7205;50.864;12.766;2023-04-04T12:45:27;98522.22;;;6.52;38.97
14242;BME280;7205;50.864;12.766;2023-04-04T12:47:55;98521.34;;;6.42;40.07
14242;BME280;7205;50.864;12.766;2023-04-04T12:50:24;98525.38;;;6.46;40.34
14242;BME280;7205;50.864;12.766;2023-04-04T12:52:52;98513.97;;;6.57;39.93
14242;BME280;7205;50.864;12.766;2023-04-04T12:55:22;98508.00;;;6.75;40.72
14242;BME280;7205;50.864;12.766;2023-04-04T12:57:49;98510.88;;;6.93;40.76
14242;BME280;7205;50.864;12.766;2023-04-04T13:00:19;98511.03;;;7.01;39.50
14242;BME280;7205;50.864;12.766;2023-04-04T13:02:48;98501.97;;;7.05;39.67
14242;BME280;7205;50.864;12.766;2023-04-04T13:05:17;98499.75;;;7.10;39.42
14242;BME280;7205;50.864;12.766;2023-04-04T13:07:46;98502.38;;;7.10;38.38
14242;BME280;7205;50.864;12.766;2023-04-04T13:10:14;98496.94;;;7.02;37.62
14242;BME280;7205;50.864;12.766;2023-04-04T13:12:57;98492.06;;;6.88;37.15
14242;BME280;7205;50.864;12.766;2023-04-04T13:15:49;98497.13;;;6.80;37.23
14242;BME280;7205;50.864;12.766;2023-04-04T13:18:18;98497.50;;;6.75;37.07
14242;BME280;7205;50.864;12.766;2023-04-04T13:20:46;98489.50;;;6.77;37.07